createdAt,value
2019-03-31T00:06:40.887Z,99706.64
2019-03-31T00:16:46.051Z,99692.48
2019-03-31T00:26:51.233Z,99689.48
2019-03-31T00:36:56.464Z,99676.90
2019-03-31T00:47:02.339Z,99674.88
2019-03-31T00:57:07.663Z,99657.10
2019-03-31T01:07:13.342Z,99648.20
2019-03-31T01:17:19.256Z,99649.20
2019-03-31T01:27:24.730Z,99647.26
2019-03-31T01:37:30.309Z,99648.20
2019-03-31T01:47:35.618Z,99645.97
2019-03-31T01:57:40.990Z,99633.86
2019-03-31T02:07:46.305Z,99624.44
2019-03-31T02:17:51.525Z,99625.84
2019-03-31T02:27:56.922Z,99626.96
2019-03-31T02:38:02.539Z,99619.83
2019-03-31T02:48:08.154Z,99624.55
2019-03-31T02:58:14.723Z,99626.02
2019-03-31T03:08:20.909Z,99626.85
2019-03-31T03:18:26.360Z,99614.62
2019-03-31T03:28:31.653Z,99619.29
2019-03-31T03:38:36.967Z,99619.62
2019-03-31T03:48:42.442Z,99615.12
2019-03-31T03:58:47.765Z,99618.22
2019-03-31T04:08:53.049Z,99620.81
2019-03-31T04:18:58.723Z,99618.19
2019-03-31T04:29:04.210Z,99625.34
2019-03-31T04:39:09.332Z,99625.34
2019-03-31T04:49:14.680Z,99622.07
2019-03-31T04:59:19.936Z,99627.77
2019-03-31T05:09:25.401Z,99631.45
2019-03-31T05:19:30.865Z,99635.87
2019-03-31T05:29:36.227Z,99649.94
2019-03-31T05:39:42.603Z,99651.22
2019-03-31T05:49:47.781Z,99657.79
2019-03-31T05:59:54.172Z,99656.52
2019-03-31T06:09:59.563Z,99652.66
2019-03-31T06:20:06.920Z,99649.57
2019-03-31T06:30:12.489Z,99646.38
2019-03-31T06:40:17.873Z,99642.66
2019-03-31T06:50:23.279Z,99649.53
2019-03-31T07:00:28.582Z,99642.42
2019-03-31T07:10:33.859Z,99633.37
2019-03-31T07:20:39.124Z,99631.52
2019-03-31T07:30:44.401Z,99638.68
2019-03-31T07:40:49.906Z,99645.55
2019-03-31T07:50:55.475Z,99656.34
2019-03-31T08:01:00.864Z,99658.27
2019-03-31T08:11:06.191Z,99649.81
2019-03-31T08:21:11.662Z,99655.00
2019-03-31T08:31:17.148Z,99645.31
2019-03-31T08:41:23.361Z,99636.10
2019-03-31T08:51:28.586Z,99665.89
2019-03-31T09:01:33.987Z,99659.88
2019-03-31T09:11:39.336Z,99648.72
2019-03-31T09:21:45.440Z,99637.06
2019-03-31T09:31:51.985Z,99641.77
2019-03-31T09:41:57.759Z,99622.79
2019-03-31T09:52:03.335Z,99615.27
2019-03-31T10:02:08.788Z,99612.19
2019-03-31T10:12:14.456Z,99599.21
2019-03-31T10:22:19.756Z,99605.00
2019-03-31T10:32:24.984Z,99603.14
2019-03-31T10:42:30.461Z,99598.87
2019-03-31T10:52:35.695Z,99605.37
2019-03-31T11:02:41.327Z,99602.58
2019-03-31T11:12:47.013Z,99595.36
2019-03-31T11:23:09.151Z,99597.91
2019-03-31T11:33:14.644Z,99591.66
2019-03-31T11:43:21.397Z,99584.63
2019-03-31T11:53:26.834Z,99573.61
2019-03-31T12:03:32.563Z,99571.81
2019-03-31T12:13:37.966Z,99586.34
2019-03-31T12:23:43.481Z,99593.77
2019-03-31T12:33:49.313Z,99599.95
2019-03-31T12:43:55.412Z,99597.98
2019-03-31T12:54:01.241Z,99595.01
2019-03-31T13:04:06.683Z,99600.30
2019-03-31T13:14:12.594Z,99603.68
2019-03-31T13:24:18.474Z,99595.70
2019-03-31T13:34:24.121Z,99607.22
2019-03-31T13:44:29.923Z,99615.83
2019-03-31T13:54:35.766Z,99617.15
2019-03-31T14:04:51.486Z,99613.02
2019-03-31T14:14:48.999Z,99620.37
2019-03-31T14:24:54.607Z,99640.94
2019-03-31T14:35:00.714Z,99642.42
2019-03-31T14:45:08.168Z,99643.16
2019-03-31T14:55:14.272Z,99649.48
2019-03-31T15:05:20.171Z,99666.35
2019-03-31T15:15:26.204Z,99672.16
2019-03-31T15:25:32.164Z,99689.84
2019-03-31T15:35:38.244Z,99695.80
2019-03-31T15:45:44.083Z,99702.91
2019-03-31T15:55:50.147Z,99718.92
2019-03-31T16:05:56.490Z,99733.69
2019-03-31T16:16:02.300Z,99749.03
2019-03-31T16:26:07.965Z,99765.09
2019-03-31T16:36:13.782Z,99775.70
2019-03-31T16:46:19.947Z,99786.74
2019-03-31T16:56:25.883Z,99797.84
2019-03-31T17:06:31.746Z,99802.77
2019-03-31T17:16:37.641Z,99815.83
2019-03-31T17:26:43.602Z,99829.08
2019-03-31T17:36:49.636Z,99836.99
2019-03-31T17:46:55.482Z,99849.52
2019-03-31T17:57:01.431Z,99869.17
2019-03-31T18:07:06.924Z,99891.38
2019-03-31T18:17:13.687Z,99906.32
2019-03-31T18:27:19.605Z,99912.12
2019-03-31T18:37:25.686Z,99928.41
2019-03-31T18:47:31.726Z,99938.09
2019-03-31T18:57:39.108Z,99954.43
2019-03-31T19:08:03.027Z,99959.45
2019-03-31T19:18:11.470Z,99969.13
2019-03-31T19:28:20.083Z,99976.74
2019-03-31T19:38:44.424Z,99987.76
2019-03-31T19:48:55.004Z,99997.45
2019-03-31T19:59:08.535Z,100010.70
2019-03-31T20:09:16.995Z,100023.89
2019-03-31T20:19:42.707Z,100033.63
2019-03-31T20:29:56.252Z,100033.63
2019-03-31T20:40:20.053Z,100043.75
2019-03-31T20:50:26.173Z,100056.42
2019-03-31T21:00:31.972Z,100076.43
2019-03-31T21:10:37.657Z,100089.12
2019-03-31T21:20:43.405Z,100104.31
2019-03-31T21:30:49.203Z,100116.93
2019-03-31T21:40:54.612Z,100129.92
2019-03-31T21:51:00.250Z,100141.25
2019-03-31T22:01:06.196Z,100147.61
2019-03-31T22:11:12.219Z,100163.89
2019-03-31T22:21:17.759Z,100174.39
2019-03-31T22:31:23.439Z,100184.59
2019-03-31T22:41:28.984Z,100204.95
2019-03-31T22:51:34.446Z,100215.77
2019-03-31T23:01:39.799Z,100227.81
2019-03-31T23:11:45.581Z,100229.38
2019-03-31T23:21:51.200Z,100246.41
2019-03-31T23:31:56.676Z,100251.02
2019-03-31T23:42:02.274Z,100256.22
2019-03-31T23:52:07.610Z,100268.23
